Time;durP1;ratioP1;P1;durP2;ratioP2;P2;SDS_P1;SDS_P2;PMS_P1;PMS_P2;Temp;Humidity;BMP_temperature;BMP_pressure;BME280_temperature;BME280_humidity;BME280_pressure;Samples;Min_cycle;Max_cycle;Signal;HPM_P1;HPM_P2
2023/12/15 00:01:42;;;;;;;20.52;12.73;;;8.00;99.90;;;;;;5093109;28;20024;-74
2023/12/15 00:04:08;;;;;;;20.85;12.73;;;8.10;99.90;;;;;;5086088;28;20155;-74
2023/12/15 00:06:34;;;;;;;20.27;13.13;;;8.20;99.90;;;;;;5082769;28;20126;-74
2023/12/15 00:09:00;;;;;;;20.40;12.30;;;8.00;99.90;;;;;;5078997;28;20028;-74
2023/12/15 00:11:26;;;;;;;19.73;12.02;;;8.10;99.90;;;;;;5077578;28;20119;-74
2023/12/15 00:13:51;;;;;;;25.17;13.07;;;8.00;99.90;;;;;;5074690;28;20513;-75
2023/12/15 00:16:17;;;;;;;21.90;11.85;;;8.00;99.90;;;;;;5074636;28;20123;-73
2023/12/15 00:18:43;;;;;;;20.67;12.18;;;8.00;99.90;;;;;;5080054;28;20032;-74
2023/12/15 00:21:09;;;;;;;20.67;12.18;;;8.00;99.90;;;;;;5077770;28;20036;-75
2023/12/15 00:23:35;;;;;;;22.83;12.30;;;7.90;99.90;;;;;;5079469;28;20104;-74
2023/12/15 00:26:01;;;;;;;23.02;13.73;;;7.90;99.90;;;;;;5074690;28;20038;-73
2023/12/15 00:28:27;;;;;;;21.65;12.93;;;8.00;99.90;;;;;;5074239;28;20398;-73
2023/12/15 00:30:53;;;;;;;20.38;12.90;;;8.00;99.90;;;;;;5094056;28;20063;-74
2023/12/15 00:33:18;;;;;;;22.27;13.20;;;8.00;99.90;;;;;;5077932;28;20024;-73
2023/12/15 00:35:46;;;;;;;21.42;12.60;;;8.10;99.90;;;;;;5076487;28;20332;-73
2023/12/15 00:38:12;;;;;;;23.80;12.23;;;8.10;99.90;;;;;;5074031;28;20024;-74
2023/12/15 00:40:38;;;;;;;20.02;11.95;;;8.10;99.90;;;;;;5074664;28;20486;-74
2023/12/15 00:43:03;;;;;;;20.20;11.90;;;7.90;99.90;;;;;;5079091;28;20021;-74
2023/12/15 00:45:29;;;;;;;21.40;12.05;;;8.10;99.90;;;;;;5076544;28;20029;-74
2023/12/15 00:47:55;;;;;;;21.95;12.73;;;7.90;99.90;;;;;;5074863;28;20021;-73
2023/12/15 00:50:21;;;;;;;20.05;12.13;;;7.90;99.90;;;;;;5073492;28;20028;-73
2023/12/15 00:52:47;;;;;;;23.02;13.05;;;8.10;99.90;;;;;;5074984;28;20037;-74
2023/12/15 00:55:13;;;;;;;18.67;11.48;;;8.00;99.90;;;;;;5076911;28;20028;-73
2023/12/15 00:57:38;;;;;;;21.25;13.48;;;8.00;99.90;;;;;;5075847;28;20064;-74
2023/12/15 01:00:05;;;;;;;22.30;13.07;;;7.90;99.90;;;;;;5075421;28;20363;-73
2023/12/15 01:02:31;;;;;;;21.38;12.55;;;7.90;99.90;;;;;;5073335;28;20055;-73
2023/12/15 01:04:57;;;;;;;23.00;13.48;;;7.90;99.90;;;;;;5074356;28;20063;-73
2023/12/15 01:07:23;;;;;;;21.88;12.65;;;7.90;99.90;;;;;;5076706;28;20016;-73
2023/12/15 01:09:49;;;;;;;20.38;13.20;;;7.90;99.90;;;;;;5076332;28;20020;-73
2023/12/15 01:12:15;;;;;;;22.42;13.68;;;7.90;99.90;;;;;;5073802;28;20017;-73
2023/12/15 01:14:40;;;;;;;21.15;12.52;;;7.80;99.90;;;;;;5073674;28;20053;-74
2023/12/15 01:17:06;;;;;;;19.95;11.48;;;7.80;99.90;;;;;;5079048;28;20099;-74
2023/12/15 01:19:32;;;;;;;20.98;12.43;;;7.80;99.90;;;;;;5076586;28;20033;-74
2023/12/15 01:21:58;;;;;;;20.75;12.38;;;7.80;99.90;;;;;;5075256;28;20020;-74
2023/12/15 01:24:24;;;;;;;22.92;12.93;;;7.80;99.90;;;;;;5073729;28;20070;-74
2023/12/15 01:26:50;;;;;;;20.58;12.02;;;7.80;99.90;;;;;;5072644;28;20095;-74
2023/12/15 01:29:16;;;;;;;22.13;12.30;;;7.80;99.90;;;;;;5077282;28;20399;-74
2023/12/15 01:31:41;;;;;;;22.95;12.15;;;7.70;99.90;;;;;;5076805;28;20387;-74
2023/12/15 01:34:07;;;;;;;20.17;11.93;;;7.80;99.90;;;;;;5075014;28;20464;-74
2023/12/15 01:36:34;;;;;;;20.08;11.75;;;7.80;99.90;;;;;;5072904;28;20056;-73
2023/12/15 01:39:00;;;;;;;19.02;11.40;;;7.80;99.90;;;;;;5072864;28;20471;-74
2023/12/15 01:41:26;;;;;;;23.73;12.20;;;7.80;99.90;;;;;;5077604;28;20028;-74
2023/12/15 01:43:52;;;;;;;18.67;10.98;;;7.80;99.90;;;;;;5075509;28;20078;-75
2023/12/15 01:46:18;;;;;;;23.75;12.80;;;7.80;99.90;;;;;;5073662;28;20463;-74
2023/12/15 01:48:44;;;;;;;19.00;11.90;;;7.80;99.90;;;;;;5072479;28;20070;-74
2023/12/15 01:51:10;;;;;;;22.60;12.23;;;7.80;99.90;;;;;;5075699;28;20028;-74
2023/12/15 01:53:36;;;;;;;18.65;11.25;;;7.80;99.90;;;;;;5075869;28;20078;-74
2023/12/15 01:56:03;;;;;;;21.45;12.32;;;7.80;99.90;;;;;;5075384;28;20095;-75
2023/12/15 01:58:29;;;;;;;18.85;12.02;;;7.70;99.90;;;;;;5074811;28;20036;-73
2023/12/15 02:00:55;;;;;;;22.50;12.68;;;7.70;99.90;;;;;;5072547;28;20020;-72
2023/12/15 02:03:21;;;;;;;20.67;12.25;;;7.80;99.90;;;;;;5071993;28;20055;-73
2023/12/15 02:05:48;;;;;;;19.52;12.68;;;7.70;99.90;;;;;;5075159;28;20017;-74
2023/12/15 02:08:14;;;;;;;18.48;12.07;;;7.70;99.90;;;;;;5076563;28;20459;-74
2023/12/15 02:10:40;;;;;;;34.63;13.38;;;7.80;99.90;;;;;;5073626;28;20029;-75
2023/12/15 02:13:07;;;;;;;21.38;12.32;;;7.80;99.90;;;;;;5072518;28;20013;-74
2023/12/15 02:15:33;;;;;;;20.10;11.45;;;7.80;99.90;;;;;;5075000;28;20028;-75
2023/12/15 02:17:59;;;;;;;21.30;12.48;;;7.70;99.90;;;;;;5075793;28;20591;-73
2023/12/15 02:20:26;;;;;;;19.58;12.38;;;7.70;99.90;;;;;;5073926;28;20037;-74
2023/12/15 02:22:52;;;;;;;23.35;12.32;;;7.60;99.90;;;;;;5072700;28;20017;-74
2023/12/15 02:25:18;;;;;;;20.80;12.40;;;7.60;99.90;;;;;;5071425;28;20027;-74
2023/12/15 02:27:44;;;;;;;20.10;12.02;;;7.60;99.90;;;;;;5076376;28;20028;-74
2023/12/15 02:30:10;;;;;;;21.95;12.00;;;7.70;99.90;;;;;;5074972;28;20521;-74
2023/12/15 02:32:36;;;;;;;20.73;12.88;;;7.60;99.90;;;;;;5074490;28;20111;-74
2023/12/15 02:35:02;;;;;;;21.83;13.60;;;7.60;99.90;;;;;;5071881;28;20461;-74
2023/12/15 02:37:28;;;;;;;22.30;13.18;;;7.60;99.90;;;;;;5071348;28;20028;-73
2023/12/15 02:39:54;;;;;;;20.50;12.13;;;7.50;99.90;;;;;;5074331;28;20020;-74
2023/12/15 02:42:20;;;;;;;19.65;13.10;;;7.50;99.90;;;;;;5075291;28;20452;-74
2023/12/15 02:44:46;;;;;;;21.63;11.43;;;7.50;99.90;;;;;;5071573;28;20021;-74
2023/12/15 02:47:12;;;;;;;23.50;12.93;;;7.50;99.90;;;;;;5071247;28;20037;-74
2023/12/15 02:49:40;;;;;;;26.08;13.70;;;7.50;99.90;;;;;;5071080;28;20032;-74
2023/12/15 02:52:07;;;;;;;23.95;13.30;;;7.50;99.90;;;;;;5077467;28;20035;-74
2023/12/15 02:54:36;;;;;;;21.60;12.88;;;7.50;99.90;;;;;;5073621;28;20107;-73
2023/12/15 02:57:02;;;;;;;19.65;12.80;;;7.50;99.90;;;;;;5073852;28;20024;-74
2023/12/15 02:59:28;;;;;;;23.13;12.60;;;7.50;99.90;;;;;;5071308;28;20070;-74
2023/12/15 03:01:54;;;;;;;21.17;12.15;;;7.50;99.90;;;;;;5072997;28;20020;-73
2023/12/15 03:04:20;;;;;;;20.77;12.52;;;7.50;99.90;;;;;;5082174;28;20016;-74
2023/12/15 03:06:46;;;;;;;20.92;12.88;;;7.50;99.90;;;;;;5091266;28;20028;-74
2023/12/15 03:09:12;;;;;;;23.02;13.48;;;7.50;99.90;;;;;;5092174;28;20045;-74
2023/12/15 03:11:38;;;;;;;22.45;13.57;;;7.60;99.90;;;;;;5091267;28;20040;-74
2023/12/15 03:14:03;;;;;;;22.45;13.23;;;7.60;99.90;;;;;;5092307;28;20036;-75
2023/12/15 03:16:29;;;;;;;24.02;13.50;;;7.60;99.90;;;;;;5091572;28;20383;-74
2023/12/15 03:18:55;;;;;;;21.67;12.93;;;7.60;99.90;;;;;;5091742;28;20024;-75
2023/12/15 03:21:21;;;;;;;19.08;11.90;;;7.70;99.90;;;;;;5091531;28;20039;-74
2023/12/15 03:23:47;;;;;;;23.30;13.57;;;7.70;99.90;;;;;;5091499;28;20032;-74
2023/12/15 03:26:13;;;;;;;21.13;12.95;;;7.70;99.90;;;;;;5091971;28;20020;-74
2023/12/15 03:28:39;;;;;;;20.90;12.23;;;7.70;99.90;;;;;;5091989;28;20098;-75
2023/12/15 03:31:06;;;;;;;22.45;12.88;;;7.70;99.90;;;;;;5095587;28;20115;-73
2023/12/15 03:33:36;;;;;;;23.88;12.93;;;7.70;99.90;;;;;;5096181;28;20535;-74
2023/12/15 03:36:05;;;;;;;21.80;13.07;;;7.60;99.90;;;;;;5095838;28;20024;-74
2023/12/15 03:38:32;;;;;;;23.17;12.70;;;7.60;99.90;;;;;;5095992;28;20031;-73
2023/12/15 03:40:58;;;;;;;21.63;13.10;;;7.60;99.90;;;;;;5096001;28;20099;-73
2023/12/15 03:43:24;;;;;;;23.65;13.65;;;7.60;99.90;;;;;;5095058;28;20103;-74
2023/12/15 03:45:50;;;;;;;24.92;13.75;;;7.50;99.90;;;;;;5095401;28;20042;-74
2023/12/15 03:48:16;;;;;;;22.13;13.55;;;7.50;99.90;;;;;;5096016;28;20394;-73
2023/12/15 03:50:42;;;;;;;20.23;12.73;;;7.50;99.90;;;;;;5095614;28;20027;-73
2023/12/15 03:53:08;;;;;;;23.35;14.23;;;7.50;99.90;;;;;;5095698;28;20020;-73
2023/12/15 03:55:33;;;;;;;22.58;12.82;;;7.50;99.90;;;;;;5095508;28;20030;-73
2023/12/15 03:57:59;;;;;;;25.50;13.23;;;7.40;99.90;;;;;;5095967;28;20031;-74
2023/12/15 04:00:25;;;;;;;20.60;13.20;;;7.40;99.90;;;;;;5095355;28;20028;-73
2023/12/15 04:02:51;;;;;;;22.25;12.88;;;7.40;99.90;;;;;;5095659;28;20028;-73
2023/12/15 04:05:17;;;;;;;22.77;12.27;;;7.40;99.90;;;;;;5095527;28;20467;-74
2023/12/15 04:07:43;;;;;;;22.73;13.48;;;7.50;99.90;;;;;;5095901;28;20028;-74
2023/12/15 04:10:09;;;;;;;21.90;13.25;;;7.40;99.90;;;;;;5095157;28;20024;-73
2023/12/15 04:12:35;;;;;;;22.95;13.57;;;7.40;99.90;;;;;;5095110;28;20020;-73
2023/12/15 04:15:01;;;;;;;20.77;12.68;;;7.40;99.90;;;;;;5094621;28;20374;-73
2023/12/15 04:17:27;;;;;;;22.48;13.40;;;7.40;99.90;;;;;;5094773;28;20044;-75
2023/12/15 04:19:53;;;;;;;20.05;11.82;;;7.40;99.90;;;;;;5095102;28;20043;-74
2023/12/15 04:22:22;;;;;;;21.92;14.27;;;7.40;99.90;;;;;;5094810;28;20409;-72
2023/12/15 04:24:50;;;;;;;25.05;15.50;;;7.40;99.90;;;;;;5094666;28;20020;-75
2023/12/15 04:27:16;;;;;;;24.33;13.75;;;7.40;99.90;;;;;;5094681;28;20055;-74
2023/12/15 04:29:42;;;;;;;26.63;16.60;;;7.30;99.90;;;;;;5095274;28;20020;-74
2023/12/15 04:32:08;;;;;;;37.33;23.05;;;7.30;99.90;;;;;;5094501;28;20024;-75
2023/12/15 04:34:34;;;;;;;32.42;18.35;;;7.30;99.90;;;;;;5094536;28;20027;-75
2023/12/15 04:37:00;;;;;;;31.00;18.15;;;7.30;99.90;;;;;;5076197;28;20290;-75
2023/12/15 04:39:26;;;;;;;29.60;17.63;;;7.20;99.90;;;;;;5093789;28;20103;-74
2023/12/15 04:41:52;;;;;;;28.10;16.45;;;7.30;99.90;;;;;;5094776;28;20374;-74
2023/12/15 04:44:17;;;;;;;25.95;15.65;;;7.30;99.90;;;;;;5094308;28;20114;-75
2023/12/15 04:46:43;;;;;;;28.23;15.65;;;7.20;99.90;;;;;;5093806;28;20509;-73
2023/12/15 04:49:09;;;;;;;31.02;17.20;;;7.30;99.90;;;;;;5094139;28;20032;-72
2023/12/15 04:51:35;;;;;;;25.75;14.93;;;7.20;99.90;;;;;;5094313;28;20482;-74
2023/12/15 04:54:01;;;;;;;23.38;14.32;;;7.20;99.90;;;;;;5094041;28;20027;-74
2023/12/15 04:56:26;;;;;;;23.15;13.68;;;7.10;99.90;;;;;;5075925;28;20040;-73
2023/12/15 04:58:52;;;;;;;21.45;13.40;;;7.20;99.90;;;;;;5094267;28;20024;-75
2023/12/15 05:01:18;;;;;;;20.88;12.73;;;7.20;99.90;;;;;;5084261;28;20031;-74
2023/12/15 05:03:45;;;;;;;30.10;16.42;;;7.10;99.90;;;;;;5094090;28;20018;-74
2023/12/15 05:06:20;;;;;;;25.65;13.85;;;7.10;99.90;;;;;;5093923;28;20028;-74
2023/12/15 05:08:48;;;;;;;25.85;13.75;;;7.00;99.90;;;;;;5092882;28;20027;-75
2023/12/15 05:11:14;;;;;;;24.17;13.30;;;7.00;99.90;;;;;;5094004;28;20043;-74
2023/12/15 05:13:40;;;;;;;27.80;15.98;;;7.00;99.90;;;;;;5094098;28;20064;-74
2023/12/15 05:16:06;;;;;;;26.30;15.10;;;6.90;99.90;;;;;;5093509;28;20125;-74
2023/12/15 05:18:32;;;;;;;26.25;14.90;;;6.90;99.90;;;;;;5093715;28;20491;-74
2023/12/15 05:20:58;;;;;;;30.50;15.35;;;6.90;99.90;;;;;;5093615;28;20016;-74
2023/12/15 05:23:24;;;;;;;23.42;15.35;;;7.00;99.90;;;;;;5093872;28;20020;-73
2023/12/15 05:25:50;;;;;;;28.25;15.25;;;7.00;99.90;;;;;;5093400;28;20495;-74
2023/12/15 05:28:16;;;;;;;29.63;14.30;;;7.00;99.90;;;;;;5092974;28;20085;-75
2023/12/15 05:30:41;;;;;;;23.67;14.52;;;7.00;99.90;;;;;;5094055;28;20073;-74
2023/12/15 05:33:07;;;;;;;21.98;13.27;;;6.90;99.90;;;;;;5093555;28;20505;-74
2023/12/15 05:35:33;;;;;;;30.27;14.32;;;6.90;99.90;;;;;;5074253;28;20040;-74
2023/12/15 05:38:00;;;;;;;25.38;14.38;;;6.90;99.90;;;;;;5093309;28;20027;-74
2023/12/15 05:40:25;;;;;;;25.00;14.32;;;6.90;99.90;;;;;;5093405;28;20024;-74
2023/12/15 05:42:51;;;;;;;26.38;15.68;;;6.90;99.90;;;;;;5093594;28;20073;-75
2023/12/15 05:45:17;;;;;;;31.33;17.35;;;6.90;99.90;;;;;;5093313;28;20027;-75
2023/12/15 05:47:43;;;;;;;24.58;14.00;;;6.90;99.90;;;;;;5093108;28;20028;-75
2023/12/15 05:50:09;;;;;;;26.70;15.60;;;6.90;99.90;;;;;;5093475;28;20400;-75
2023/12/15 05:52:35;;;;;;;25.17;14.85;;;6.90;99.90;;;;;;5092138;28;20036;-75
2023/12/15 05:55:01;;;;;;;23.77;15.18;;;6.90;99.90;;;;;;5074749;28;20028;-73
2023/12/15 05:57:27;;;;;;;29.48;16.38;;;6.90;99.90;;;;;;5093358;28;20028;-75
2023/12/15 05:59:52;;;;;;;24.58;14.05;;;6.90;99.90;;;;;;5093105;28;20016;-75
2023/12/15 06:02:18;;;;;;;28.45;15.90;;;6.90;99.90;;;;;;5093098;28;20493;-75
2023/12/15 06:04:44;;;;;;;25.33;14.13;;;6.90;99.90;;;;;;5093306;28;20055;-75
2023/12/15 06:07:10;;;;;;;28.35;15.73;;;6.80;99.90;;;;;;5093411;28;20020;-76
2023/12/15 06:09:36;;;;;;;26.70;15.48;;;6.80;99.90;;;;;;5092902;28;20387;-76
2023/12/15 06:12:03;;;;;;;32.88;19.38;;;6.90;99.90;;;;;;5093589;28;20479;-76
2023/12/15 06:14:29;;;;;;;27.85;17.00;;;6.90;99.90;;;;;;5093158;28;20028;-75
2023/12/15 06:16:55;;;;;;;28.23;17.30;;;6.90;99.90;;;;;;5092276;28;20487;-75
2023/12/15 06:19:21;;;;;;;29.17;18.70;;;6.90;99.90;;;;;;5093121;28;20028;-75
2023/12/15 06:21:47;;;;;;;27.05;16.05;;;6.90;99.90;;;;;;5093037;28;20067;-75
2023/12/15 06:24:12;;;;;;;24.90;15.57;;;6.90;99.90;;;;;;5093145;28;20020;-76
2023/12/15 06:26:38;;;;;;;26.35;17.30;;;6.90;99.90;;;;;;5092574;28;20077;-76
2023/12/15 06:29:04;;;;;;;28.45;18.08;;;6.80;99.90;;;;;;5092648;28;20020;-74
2023/12/15 06:31:30;;;;;;;31.60;18.67;;;6.80;99.90;;;;;;5092533;28;20074;-75
2023/12/15 06:33:56;;;;;;;31.10;19.42;;;6.80;99.90;;;;;;5092928;28;20031;-76
2023/12/15 06:36:22;;;;;;;31.17;20.67;;;6.80;99.90;;;;;;5092794;28;20032;-75
2023/12/15 06:38:47;;;;;;;36.90;22.52;;;6.90;99.90;;;;;;5092715;28;20606;-75
2023/12/15 06:41:14;;;;;;;32.97;20.52;;;7.00;99.90;;;;;;5092420;28;20030;-75
2023/12/15 06:43:40;;;;;;;30.90;17.17;;;6.90;99.90;;;;;;5074596;28;20429;-75
2023/12/15 06:46:06;;;;;;;33.75;21.23;;;6.90;99.90;;;;;;5092272;28;20028;-73
2023/12/15 06:48:33;;;;;;;33.88;23.35;;;6.90;99.90;;;;;;5092305;28;20031;-74
2023/12/15 06:50:59;;;;;;;37.60;23.45;;;7.00;99.90;;;;;;5092039;28;20058;-73
2023/12/15 06:53:25;;;;;;;33.25;19.02;;;7.00;99.90;;;;;;5092412;28;20463;-75
2023/12/15 06:55:51;;;;;;;31.15;17.17;;;7.00;99.90;;;;;;5079153;28;20550;-73
2023/12/15 06:58:16;;;;;;;27.45;16.95;;;6.90;99.90;;;;;;5092295;28;20024;-74
2023/12/15 07:00:42;;;;;;;31.63;18.75;;;7.00;99.90;;;;;;5091038;28;20028;-74
2023/12/15 07:03:08;;;;;;;30.38;17.00;;;7.00;99.90;;;;;;5091965;28;20421;-74
2023/12/15 07:05:35;;;;;;;30.80;19.17;;;7.00;99.90;;;;;;5091618;28;20024;-75
2023/12/15 07:08:04;;;;;;;27.38;17.05;;;7.00;99.90;;;;;;5092062;28;20020;-74
2023/12/15 07:10:30;;;;;;;29.83;18.13;;;7.00;99.90;;;;;;5091878;28;20036;-74
2023/12/15 07:12:56;;;;;;;27.70;18.23;;;7.00;99.90;;;;;;5092048;28;20532;-75
2023/12/15 07:15:24;;;;;;;34.28;21.73;;;7.00;99.90;;;;;;5091883;28;20027;-74
2023/12/15 07:17:50;;;;;;;28.33;16.25;;;6.90;99.90;;;;;;5091953;28;20043;-75
2023/12/15 07:20:16;;;;;;;25.55;16.73;;;6.90;99.90;;;;;;5092186;28;20032;-74
2023/12/15 07:22:42;;;;;;;27.02;17.52;;;6.90;99.90;;;;;;5091121;28;20020;-74
2023/12/15 07:25:07;;;;;;;31.15;17.13;;;6.80;99.90;;;;;;5091752;28;20062;-74
2023/12/15 07:27:35;;;;;;;29.40;18.08;;;6.80;99.90;;;;;;5092140;28;20095;-74
2023/12/15 07:30:01;;;;;;;31.30;19.17;;;6.90;99.90;;;;;;5107499;28;20162;-75
2023/12/15 07:32:26;;;;;;;30.50;19.88;;;6.90;99.90;;;;;;5091851;28;20098;-75
2023/12/15 07:34:52;;;;;;;34.15;21.63;;;6.90;99.90;;;;;;5091885;28;20027;-74
2023/12/15 07:37:18;;;;;;;29.17;19.85;;;7.00;99.90;;;;;;5091852;28;20429;-74
2023/12/15 07:39:44;;;;;;;34.72;22.15;;;7.00;99.90;;;;;;5091684;28;20028;-75
2023/12/15 07:42:11;;;;;;;37.58;24.15;;;7.00;99.90;;;;;;5091566;28;20542;-74
2023/12/15 07:44:37;;;;;;;34.85;25.05;;;7.00;99.90;;;;;;5091775;28;20016;-74
2023/12/15 07:47:03;;;;;;;35.92;22.83;;;7.00;99.90;;;;;;5091150;28;20016;-74
2023/12/15 07:49:34;;;;;;;39.35;22.92;;;7.10;99.90;;;;;;5091824;28;20043;-75
2023/12/15 07:52:00;;;;;;;34.78;21.98;;;7.10;99.90;;;;;;5091770;28;20484;-74
2023/12/15 07:54:26;;;;;;;27.45;18.77;;;7.00;99.90;;;;;;5091741;28;20020;-74
2023/12/15 07:56:51;;;;;;;37.45;21.90;;;7.00;99.90;;;;;;5091202;28;20032;-75
2023/12/15 07:59:17;;;;;;;34.83;21.48;;;7.00;99.90;;;;;;5092106;28;20104;-75
2023/12/15 08:01:49;;;;;;;29.60;18.42;;;6.90;99.90;;;;;;5091033;28;20141;-74
2023/12/15 08:04:15;;;;;;;37.40;22.75;;;6.90;99.90;;;;;;5091559;28;20027;-75
2023/12/15 08:06:41;;;;;;;37.38;23.52;;;7.00;99.90;;;;;;5091570;28;20032;-74
2023/12/15 08:09:06;;;;;;;55.95;36.58;;;7.00;99.90;;;;;;5091543;28;20386;-74
2023/12/15 08:11:32;;;;;;;55.70;37.30;;;7.00;99.90;;;;;;5091603;28;20375;-75
2023/12/15 08:13:58;;;;;;;42.60;28.77;;;7.10;99.90;;;;;;5091298;28;20029;-74
2023/12/15 08:16:24;;;;;;;34.53;23.45;;;7.20;99.90;;;;;;5093152;28;20044;-74
2023/12/15 08:18:50;;;;;;;29.15;19.55;;;7.20;99.90;;;;;;5094989;28;20044;-74
2023/12/15 08:21:15;;;;;;;28.30;17.73;;;7.20;99.90;;;;;;5095487;28;20140;-74
2023/12/15 08:23:41;;;;;;;28.33;18.58;;;7.30;99.90;;;;;;5095057;28;20028;-74
2023/12/15 08:26:07;;;;;;;28.65;18.73;;;7.30;99.90;;;;;;5077003;28;20441;-74
2023/12/15 08:28:35;;;;;;;30.40;18.63;;;7.30;99.90;;;;;;5095356;28;20028;-74
2023/12/15 08:31:00;;;;;;;29.27;18.02;;;7.40;99.90;;;;;;5094103;28;20085;-75
2023/12/15 08:33:28;;;;;;;30.50;20.70;;;7.40;99.90;;;;;;5095289;28;20024;-75
2023/12/15 08:35:54;;;;;;;37.60;22.20;;;7.40;99.90;;;;;;5095041;28;20028;-74
2023/12/15 08:38:20;;;;;;;35.85;20.58;;;7.50;99.90;;;;;;5094744;28;20024;-74
2023/12/15 08:40:46;;;;;;;25.95;17.02;;;7.60;99.90;;;;;;5094500;28;20038;-74
2023/12/15 08:43:11;;;;;;;23.08;14.73;;;7.70;99.90;;;;;;5094978;28;20020;-74
2023/12/15 08:45:37;;;;;;;27.17;17.15;;;7.70;99.90;;;;;;5094336;28;20481;-74
2023/12/15 08:48:03;;;;;;;24.33;15.40;;;7.70;99.90;;;;;;5094878;28;20122;-74
2023/12/15 08:50:29;;;;;;;25.25;15.70;;;7.70;99.90;;;;;;5094631;28;20017;-75
2023/12/15 08:52:55;;;;;;;26.20;15.18;;;7.80;99.90;;;;;;5095040;28;20058;-75
2023/12/15 08:55:20;;;;;;;26.35;14.77;;;7.80;99.90;;;;;;5094408;28;20039;-74
2023/12/15 08:57:46;;;;;;;27.75;14.80;;;7.90;99.90;;;;;;5094357;28;20027;-75
2023/12/15 09:00:12;;;;;;;25.50;15.85;;;8.00;99.90;;;;;;5094243;28;20019;-74
2023/12/15 09:02:38;;;;;;;23.17;14.27;;;8.00;99.90;;;;;;5094539;28;20123;-76
2023/12/15 09:05:04;;;;;;;27.20;15.55;;;8.10;99.90;;;;;;5094598;28;20036;-73
2023/12/15 09:07:30;;;;;;;25.60;15.65;;;8.00;99.90;;;;;;5094487;28;20038;-73
2023/12/15 09:09:56;;;;;;;23.63;14.43;;;8.10;99.90;;;;;;5093973;28;20099;-73
2023/12/15 09:12:21;;;;;;;22.73;14.65;;;8.20;99.90;;;;;;5094602;28;20035;-75
2023/12/15 09:14:47;;;;;;;21.75;14.20;;;8.20;99.90;;;;;;5094087;28;20027;-73
2023/12/15 09:17:13;;;;;;;23.65;14.38;;;8.20;99.90;;;;;;5093831;28;20079;-75
2023/12/15 09:19:40;;;;;;;25.48;14.85;;;8.30;99.90;;;;;;5094584;28;20032;-75
2023/12/15 09:22:06;;;;;;;25.35;14.38;;;8.30;99.90;;;;;;5093569;28;20028;-75
2023/12/15 09:24:33;;;;;;;28.63;15.70;;;8.30;99.90;;;;;;5094261;28;20382;-75
2023/12/15 09:27:00;;;;;;;25.80;16.00;;;8.40;99.90;;;;;;5093524;28;20809;-76
2023/12/15 09:29:25;;;;;;;26.92;15.05;;;8.30;99.90;;;;;;5075327;28;20048;-75
2023/12/15 09:31:51;;;;;;;30.35;16.25;;;8.30;99.90;;;;;;5093627;28;20042;-75
2023/12/15 09:34:19;;;;;;;28.98;16.65;;;8.30;99.90;;;;;;5092722;28;20024;-74
2023/12/15 09:36:44;;;;;;;27.15;17.08;;;8.30;99.90;;;;;;5103764;28;20028;-74
2023/12/15 09:39:10;;;;;;;30.15;16.05;;;8.20;99.90;;;;;;5094648;28;20032;-75
2023/12/15 09:41:36;;;;;;;29.98;17.17;;;8.30;99.90;;;;;;5105399;28;20013;-74
2023/12/15 09:44:02;;;;;;;24.02;15.75;;;8.30;99.90;;;;;;5093745;28;20035;-74
2023/12/15 09:46:28;;;;;;;27.42;16.60;;;8.30;99.90;;;;;;5093384;28;20498;-74
2023/12/15 09:48:54;;;;;;;26.77;17.00;;;8.20;99.90;;;;;;5093777;28;20032;-74
2023/12/15 09:51:24;;;;;;;29.85;18.05;;;8.20;99.90;;;;;;5095022;28;20356;-74
2023/12/15 09:53:51;;;;;;;24.98;16.55;;;8.20;99.90;;;;;;5103644;28;20032;-75
2023/12/15 09:56:17;;;;;;;26.02;14.98;;;8.30;99.90;;;;;;5092954;28;20031;-74
2023/12/15 09:58:43;;;;;;;26.17;16.02;;;8.30;99.90;;;;;;5093587;28;20040;-74
2023/12/15 10:01:10;;;;;;;26.13;16.58;;;8.20;99.90;;;;;;5093147;28;20041;-74
2023/12/15 10:03:37;;;;;;;26.20;16.80;;;8.20;99.90;;;;;;5094575;28;20028;-74
2023/12/15 10:06:03;;;;;;;26.13;16.23;;;8.20;99.90;;;;;;5093278;28;20027;-74
2023/12/15 10:08:45;;;;;;;29.00;17.75;;;8.20;99.90;;;;;;5093557;28;20470;-74
2023/12/15 10:11:11;;;;;;;30.90;17.75;;;8.30;99.90;;;;;;5093007;28;20057;-74
2023/12/15 10:13:41;;;;;;;29.00;17.27;;;8.20;99.90;;;;;;5094012;28;20406;-74
2023/12/15 10:16:08;;;;;;;24.88;15.07;;;8.30;99.90;;;;;;5092966;28;20040;-74
2023/12/15 10:18:34;;;;;;;26.90;16.05;;;8.30;99.90;;;;;;5092642;28;20028;-74
2023/12/15 10:21:00;;;;;;;22.85;14.32;;;8.30;99.90;;;;;;5093185;28;20031;-75
2023/12/15 10:23:27;;;;;;;26.98;16.52;;;8.40;99.90;;;;;;5093607;28;20485;-74
2023/12/15 10:25:54;;;;;;;29.23;16.80;;;8.30;99.90;;;;;;5092862;28;20039;-75
2023/12/15 10:28:20;;;;;;;27.73;16.88;;;8.40;99.90;;;;;;5092979;28;20054;-74
2023/12/15 10:30:50;;;;;;;25.60;15.73;;;8.50;99.90;;;;;;5092943;28;20471;-75
2023/12/15 10:33:17;;;;;;;24.33;14.80;;;8.50;99.90;;;;;;5092903;28;20489;-74
2023/12/15 10:35:45;;;;;;;28.95;16.92;;;8.60;99.90;;;;;;5093661;28;20050;-74
2023/12/15 10:38:11;;;;;;;24.05;15.25;;;8.60;99.90;;;;;;5092698;28;20053;-74
2023/12/15 10:40:37;;;;;;;25.98;15.20;;;8.50;99.90;;;;;;5092473;28;20031;-74
2023/12/15 10:43:04;;;;;;;27.75;15.05;;;8.60;99.90;;;;;;5093827;28;20367;-74
2023/12/15 10:45:32;;;;;;;23.48;14.15;;;8.50;99.90;;;;;;5092282;28;20039;-75
2023/12/15 10:48:00;;;;;;;26.90;16.23;;;8.60;99.90;;;;;;5092539;28;20036;-75
2023/12/15 10:50:28;;;;;;;24.05;15.70;;;8.60;99.90;;;;;;5092837;28;20479;-74
2023/12/15 10:52:55;;;;;;;26.27;15.85;;;8.60;99.90;;;;;;5100336;28;20466;-75
2023/12/15 10:55:25;;;;;;;25.00;15.48;;;8.50;99.90;;;;;;5097220;28;20055;-74
2023/12/15 10:57:58;;;;;;;27.55;16.08;;;8.50;99.90;;;;;;5092131;28;20428;-75
2023/12/15 11:00:24;;;;;;;24.15;14.48;;;8.60;99.90;;;;;;5093964;28;20031;-75
2023/12/15 11:02:51;;;;;;;25.67;14.68;;;8.60;99.90;;;;;;5093401;28;20031;-74
2023/12/15 11:05:17;;;;;;;23.70;14.82;;;8.60;99.90;;;;;;5092162;28;20055;-75
2023/12/15 11:07:43;;;;;;;23.13;15.13;;;8.60;99.90;;;;;;5092422;28;20069;-74
2023/12/15 11:10:12;;;;;;;25.50;16.05;;;8.50;99.90;;;;;;5092136;28;20036;-74
2023/12/15 11:12:40;;;;;;;24.10;14.27;;;8.50;99.90;;;;;;5092237;28;20036;-74
2023/12/15 11:15:10;;;;;;;24.17;14.77;;;8.50;99.90;;;;;;5092968;28;20020;-74
2023/12/15 11:17:53;;;;;;;21.65;14.00;;;8.50;99.90;;;;;;5092399;28;20087;-74
2023/12/15 11:20:22;;;;;;;21.48;14.15;;;8.60;99.90;;;;;;5092354;28;20026;-75
2023/12/15 11:22:58;;;;;;;21.63;12.63;;;8.50;99.90;;;;;;5091736;28;20024;-74
2023/12/15 11:25:31;;;;;;;23.35;14.38;;;8.50;99.90;;;;;;5101651;28;20019;-74
2023/12/15 11:28:03;;;;;;;;;;;8.50;99.90;;;;;;5095497;28;20117;-74
2023/12/15 11:30:37;;;;;;;23.50;15.00;;;8.40;99.90;;;;;;5095167;28;19963;-74
2023/12/15 11:33:24;;;;;;;23.75;15.35;;;8.50;99.90;;;;;;5091954;28;20814;-74
2023/12/15 11:35:54;;;;;;;23.85;14.48;;;8.40;99.90;;;;;;5091293;28;20476;-75
2023/12/15 11:38:21;;;;;;;22.20;15.15;;;8.60;99.90;;;;;;5089903;28;20089;-74
2023/12/15 11:40:50;;;;;;;25.15;15.38;;;8.60;99.90;;;;;;5091359;28;20024;-75
2023/12/15 11:43:17;;;;;;;24.73;15.27;;;8.50;99.90;;;;;;5091537;28;20024;-75
2023/12/15 11:45:43;;;;;;;38.15;16.70;;;8.60;99.90;;;;;;5091787;28;20024;-74
2023/12/15 11:48:16;;;;;;;28.38;14.80;;;8.70;99.90;;;;;;5091876;28;20069;-75
2023/12/15 11:50:46;;;;;;;;;;;8.80;99.90;;;;;;5093322;28;20036;-75
2023/12/15 11:53:12;;;;;;;29.75;18.55;;;9.00;99.90;;;;;;5094153;28;20343;-74
2023/12/15 11:55:40;;;;;;;26.58;15.00;;;9.00;99.90;;;;;;5093671;28;20364;-73
2023/12/15 11:58:06;;;;;;;25.25;15.82;;;8.90;99.90;;;;;;5081364;28;20472;-74
2023/12/15 12:00:32;;;;;;;24.90;14.63;;;8.80;99.90;;;;;;5075813;28;20061;-74
2023/12/15 12:02:59;;;;;;;24.48;16.23;;;8.70;99.90;;;;;;5095944;28;20020;-75
2023/12/15 12:05:26;;;;;;;29.52;17.45;;;8.60;99.90;;;;;;5095639;28;20833;-74
2023/12/15 12:07:52;;;;;;;29.45;18.08;;;8.60;99.90;;;;;;5095793;28;20028;-75
2023/12/15 12:10:18;;;;;;;25.42;15.77;;;8.60;99.90;;;;;;5095554;28;20028;-74
2023/12/15 12:12:44;;;;;;;27.42;16.98;;;8.50;99.90;;;;;;5094584;28;20032;-75
2023/12/15 12:15:10;;;;;;;26.20;16.55;;;8.50;99.90;;;;;;5075082;28;20063;-75
2023/12/15 12:17:38;;;;;;;26.58;17.35;;;8.50;99.90;;;;;;5081104;28;20051;-74
2023/12/15 12:20:06;;;;;;;32.67;19.40;;;8.40;99.90;;;;;;5095000;28;20020;-75
2023/12/15 12:22:33;;;;;;;36.00;22.30;;;8.40;99.90;;;;;;5094724;28;20024;-75
2023/12/15 12:24:59;;;;;;;42.55;26.05;;;8.40;99.90;;;;;;5095713;28;20114;-75
2023/12/15 12:27:34;;;;;;;25.45;15.52;;;8.30;99.90;;;;;;5095092;28;20035;-74
2023/12/15 12:30:01;;;;;;;25.77;16.35;;;8.30;99.90;;;;;;5082677;28;20035;-74
2023/12/15 12:32:26;;;;;;;28.15;17.80;;;8.20;99.90;;;;;;5095028;28;20024;-74
2023/12/15 12:34:53;;;;;;;28.35;16.17;;;8.30;99.90;;;;;;5095224;28;20035;-74